Time;durP1;ratioP1;P1;durP2;ratioP2;P2;SDS_P1;SDS_P2;PMS_P1;PMS_P2;Temp;Humidity;BMP_temperature;BMP_pressure;BME280_temperature;BME280_humidity;BME280_pressure;Samples;Min_cycle;Max_cycle;Signal;HPM_P1;HPM_P2
2021/08/13 00:01:18;;;;;;;;;11.25;11.00;;;;;22.26;56.35;101301.44;5015902;28;45445;-61
2021/08/13 00:03:44;;;;;;;;;13.00;11.00;;;;;22.24;56.26;101306.19;5017314;28;69618;-61
2021/08/13 00:06:09;;;;;;;;;11.00;10.00;;;;;22.21;56.92;101307.41;5018887;28;45434;-61
2021/08/13 00:08:35;;;;;;;;;12.50;9.50;;;;;22.21;56.64;101314.59;5018393;28;49787;-61
2021/08/13 00:11:00;;;;;;;;;11.00;9.00;;;;;22.18;56.60;101318.50;5006417;28;45441;-60
2021/08/13 00:13:26;;;;;;;;;10.50;10.25;;;;;22.15;56.59;101318.88;5018654;28;45499;-61
2021/08/13 00:15:51;;;;;;;;;10.50;10.50;;;;;22.14;56.87;101313.72;5017728;28;61242;-60
2021/08/13 00:18:16;;;;;;;;;10.50;10.50;;;;;22.12;56.58;101313.09;5017089;28;74606;-61
2021/08/13 00:20:42;;;;;;;;;9.50;9.25;;;;;22.11;56.80;101322.16;5017275;28;73186;-61
2021/08/13 00:23:07;;;;;;;;;12.00;10.50;;;;;22.08;57.00;101309.97;5016740;28;45448;-61
2021/08/13 00:25:33;;;;;;;;;11.75;10.25;;;;;22.09;56.83;101315.13;5017982;28;45361;-61
2021/08/13 00:27:58;;;;;;;;;9.25;9.25;;;;;22.05;57.15;101313.88;5017712;28;46873;-61
2021/08/13 00:30:23;;;;;;;;;14.50;12.50;;;;;22.03;56.57;101321.25;5017190;28;60084;-61
2021/08/13 00:32:49;;;;;;;;;11.50;11.00;;;;;22.01;56.85;101317.09;5016100;28;51821;-61
2021/08/13 00:35:14;;;;;;;;;12.00;11.00;;;;;21.98;56.34;101321.00;5016929;28;69430;-61
2021/08/13 00:37:39;;;;;;;;;13.75;10.50;;;;;21.93;56.47;101326.09;5017749;28;45438;-60
2021/08/13 00:40:06;;;;;;;;;10.25;9.50;;;;;21.88;56.71;101324.03;5017406;28;45483;-61
2021/08/13 00:42:31;;;;;;;;;7.75;7.75;;;;;21.85;56.53;101329.75;5017781;28;45336;-60
2021/08/13 00:44:57;;;;;;;;;14.00;11.25;;;;;21.83;57.09;101326.44;5016680;28;66502;-61
2021/08/13 00:47:22;;;;;;;;;8.00;8.00;;;;;21.79;57.12;101331.31;5015265;28;74627;-60
2021/08/13 00:49:47;;;;;;;;;9.00;9.00;;;;;21.76;56.73;101323.69;5017335;28;50111;-61
2021/08/13 00:52:14;;;;;;;;;14.50;11.00;;;;;21.74;57.25;101323.03;5016634;28;63744;-60
2021/08/13 00:54:39;;;;;;;;;9.50;8.75;;;;;21.73;57.01;101316.03;5015655;28;45482;-60
2021/08/13 00:57:05;;;;;;;;;10.00;8.25;;;;;21.69;56.88;101317.47;5012607;28;74423;-60
2021/08/13 00:59:30;;;;;;;;;9.75;9.00;;;;;21.67;57.52;101321.34;5015413;28;56929;-62
2021/08/13 01:01:56;;;;;;;;;11.25;9.00;;;;;21.66;57.08;101322.34;5015442;28;68144;-61
2021/08/13 01:04:21;;;;;;;;;10.25;10.25;;;;;21.66;57.61;101323.19;5014802;28;69260;-62
2021/08/13 01:06:46;;;;;;;;;10.50;10.00;;;;;21.63;57.10;101321.72;5016240;28;71201;-61
2021/08/13 01:09:12;;;;;;;;;8.50;8.50;;;;;21.62;57.37;101325.41;5017253;28;45296;-61
2021/08/13 01:12:04;;;;;;;;;12.00;10.50;;;;;21.60;57.21;101331.94;5015710;28;45435;-59
2021/08/13 01:15:04;;;;;;;;;9.25;9.25;;;;;21.58;57.24;101328.63;5012622;28;45429;-62
2021/08/13 01:17:33;;;;;;;;;12.75;10.00;;;;;21.53;57.55;101337.19;5017107;28;47149;-60
2021/08/13 01:20:04;;;;;;;;;12.75;10.00;;;;;21.51;57.24;101333.88;5012115;28;47989;-61
2021/08/13 01:22:44;;;;;;;;;14.25;11.25;;;;;21.48;57.47;101328.91;5017520;28;45506;-60
2021/08/13 01:25:10;;;;;;;;;11.75;11.00;;;;;21.45;57.49;101323.97;5011902;28;45520;-61
2021/08/13 01:27:38;;;;;;;;;12.00;10.25;;;;;21.45;57.86;101332.81;4995072;28;71774;-60
2021/08/13 01:30:07;;;;;;;;;13.75;11.00;;;;;21.45;57.46;101340.03;5007928;28;46687;-61
2021/08/13 01:32:53;;;;;;;;;15.00;10.50;;;;;21.41;57.82;101328.84;5017441;28;45459;-61
2021/08/13 01:35:21;;;;;;;;;12.50;10.00;;;;;21.40;57.65;101331.72;5015597;28;45407;-61
2021/08/13 01:37:51;;;;;;;;;10.50;9.00;;;;;21.39;57.92;101327.41;5015533;28;45410;-60
2021/08/13 01:40:17;;;;;;;;;15.00;8.00;;;;;21.38;57.94;101323.06;5016765;28;45788;-61
2021/08/13 01:42:43;;;;;;;;;8.75;7.75;;;;;21.34;58.83;101322.59;4999301;28;45448;-61
2021/08/13 01:45:10;;;;;;;;;9.50;8.00;;;;;21.31;58.63;101329.16;5015720;28;45547;-61
2021/08/13 01:47:36;;;;;;;;;10.50;10.00;;;;;21.29;58.64;101322.34;5015398;28;45494;-61
2021/08/13 01:50:01;;;;;;;;;9.00;8.75;;;;;21.28;58.45;101323.34;4998218;28;66026;-61
2021/08/13 01:52:27;;;;;;;;;10.50;10.00;;;;;21.27;58.22;101319.03;5015043;28;52561;-60
2021/08/13 01:54:52;;;;;;;;;9.75;7.25;;;;;21.28;58.40;101326.03;5014367;28;67327;-60
2021/08/13 01:57:18;;;;;;;;;11.75;9.50;;;;;21.25;58.34;101329.06;5015118;28;45920;-61
2021/08/13 01:59:43;;;;;;;;;12.50;10.00;;;;;21.20;57.94;101327.78;5015875;28;51919;-60
2021/08/13 02:02:09;;;;;;;;;8.00;8.00;;;;;21.16;57.82;101331.88;4998028;28;65790;-61
2021/08/13 02:04:34;;;;;;;;;11.75;9.00;;;;;21.12;58.06;101322.56;5015434;28;63714;-60
2021/08/13 02:06:59;;;;;;;;;10.00;8.25;;;;;21.07;57.83;101327.66;4997422;28;71068;-60
2021/08/13 02:09:25;;;;;;;;;10.75;10.75;;;;;21.04;57.92;101334.19;5014923;28;45531;-61
2021/08/13 02:11:50;;;;;;;;;11.00;10.00;;;;;21.02;58.21;101343.41;5014734;28;45507;-61
2021/08/13 02:14:16;;;;;;;;;12.00;9.00;;;;;20.96;58.27;101333.47;5016238;28;45465;-61
2021/08/13 02:16:42;;;;;;;;;9.00;8.50;;;;;20.91;57.53;101320.66;5016257;28;45958;-60
2021/08/13 02:19:17;;;;;;;;;8.00;7.25;;;;;20.88;58.18;101339.75;4998653;28;47795;-61
2021/08/13 02:21:43;;;;;;;;;10.00;8.25;;;;;20.86;58.20;101347.91;4998863;28;46656;-61
2021/08/13 02:24:09;;;;;;;;;10.00;8.00;;;;;20.85;57.87;101340.91;4997876;28;45525;-61
2021/08/13 02:26:34;;;;;;;;;9.00;8.25;;;;;20.83;58.01;101342.94;5015878;28;45162;-60
2021/08/13 02:29:01;;;;;;;;;8.50;7.25;;;;;20.82;58.98;101345.81;5015394;28;64980;-61
2021/08/13 02:31:27;;;;;;;;;8.75;8.75;;;;;20.76;59.16;101332.16;5015776;28;45548;-61
2021/08/13 02:33:52;;;;;;;;;9.25;8.00;;;;;20.71;58.91;101326.53;5015687;28;45727;-61
2021/08/13 02:36:18;;;;;;;;;10.00;8.25;;;;;20.68;59.31;101328.72;5014715;28;75527;-61
2021/08/13 02:38:53;;;;;;;;;7.75;7.00;;;;;20.67;59.40;101338.59;4997086;28;71952;-61
2021/08/13 02:41:19;;;;;;;;;6.00;6.00;;;;;20.66;59.50;101336.94;4998601;28;45417;-61
2021/08/13 02:43:49;;;;;;;;;11.00;9.00;;;;;20.64;58.79;101343.47;5013373;28;69078;-60
2021/08/13 02:46:15;;;;;;;;;7.50;7.00;;;;;20.62;58.88;101346.31;5014419;28;45462;-60
2021/08/13 02:48:41;;;;;;;;;12.25;9.00;;;;;20.59;59.30;101336.84;5013482;28;72276;-61
2021/08/13 02:51:08;;;;;;;;;8.75;8.25;;;;;20.55;58.93;101327.53;5015101;28;45423;-61
2021/08/13 02:53:38;;;;;;;;;7.50;7.50;;;;;20.52;58.68;101325.25;5013679;28;47455;-60
2021/08/13 02:56:08;;;;;;;;;8.75;7.75;;;;;20.50;59.08;101331.75;5015670;28;46045;-61
2021/08/13 02:58:43;;;;;;;;;8.75;7.25;;;;;20.47;59.04;101332.97;5015554;28;45860;-61
2021/08/13 03:01:08;;;;;;;;;8.75;7.25;;;;;20.45;58.58;101335.81;5015753;28;45424;-61
2021/08/13 03:03:34;;;;;;;;;8.25;8.00;;;;;20.43;58.86;101337.00;4996878;28;66621;-60
2021/08/13 03:06:00;;;;;;;;;11.25;9.00;;;;;20.38;58.91;101332.22;4998052;28;46183;-61
2021/08/13 03:08:26;;;;;;;;;10.00;9.00;;;;;20.36;58.71;101328.91;5014355;28;45497;-61
2021/08/13 03:10:51;;;;;;;;;9.75;8.00;;;;;20.33;58.78;101323.94;5015474;28;45533;-60
2021/08/13 03:13:16;;;;;;;;;9.00;7.00;;;;;20.34;58.95;101335.41;5013506;28;63208;-60
2021/08/13 03:15:42;;;;;;;;;4.00;3.00;;;;;20.32;59.25;101335.63;4996736;28;71343;-60
2021/08/13 03:18:07;;;;;;;;;8.00;7.00;;;;;20.33;59.31;101345.28;5014807;28;45452;-60
2021/08/13 03:20:33;;;;;;;;;9.00;7.25;;;;;20.33;59.68;101344.44;5013691;28;65514;-61
2021/08/13 03:22:58;;;;;;;;;9.50;8.00;;;;;20.33;59.39;101336.44;5015163;28;45431;-61
2021/08/13 03:25:24;;;;;;;;;7.25;7.00;;;;;20.31;59.99;101342.78;4996836;28;61408;-61
2021/08/13 03:27:49;;;;;;;;;7.00;6.50;;;;;20.30;59.66;101338.44;4997424;28;45467;-61
2021/08/13 03:30:14;;;;;;;;;7.00;7.00;;;;;20.30;59.75;101343.78;4996437;28;69091;-61
2021/08/13 03:32:40;;;;;;;;;9.50;8.00;;;;;20.32;59.32;101359.63;5014673;28;59109;-61
2021/08/13 03:35:05;;;;;;;;;9.00;8.00;;;;;20.33;59.00;101358.63;5012504;28;46055;-61
2021/08/13 03:37:31;;;;;;;;;7.50;7.00;;;;;20.33;58.81;101352.44;5014595;28;45253;-60
2021/08/13 03:39:57;;;;;;;;;12.50;7.50;;;;;20.32;58.51;101348.97;5014761;28;58229;-61
2021/08/13 03:42:22;;;;;;;;;6.75;6.00;;;;;20.30;58.48;101345.63;5014991;28;45290;-60
2021/08/13 03:44:48;;;;;;;;;9.25;7.75;;;;;20.30;58.73;101348.31;5014019;28;66733;-60
2021/08/13 03:47:13;;;;;;;;;8.75;5.00;;;;;20.29;58.31;101350.13;5014084;28;64895;-60
2021/08/13 03:49:38;;;;;;;;;10.75;8.25;;;;;20.27;58.63;101349.47;5014035;28;64243;-60
2021/08/13 03:52:04;;;;;;;;;6.50;6.50;;;;;20.26;59.05;101349.69;5013923;28;68685;-61
2021/08/13 03:54:29;;;;;;;;;8.00;8.00;;;;;20.24;59.10;101343.69;5013771;28;64349;-61
2021/08/13 03:56:55;;;;;;;;;12.25;7.75;;;;;20.23;58.80;101348.19;5013930;28;63659;-62
2021/08/13 03:59:20;;;;;;;;;8.00;7.00;;;;;20.21;58.83;101339.53;5014102;28;61143;-61
2021/08/13 04:01:45;;;;;;;;;6.75;6.25;;;;;20.19;58.67;101343.41;5013731;28;65585;-61
2021/08/13 04:04:11;;;;;;;;;8.25;7.00;;;;;20.16;58.59;101341.91;5013881;28;63649;-61
2021/08/13 04:06:36;;;;;;;;;10.75;9.25;;;;;20.12;58.95;101349.44;5013980;28;64402;-60
2021/08/13 04:09:01;;;;;;;;;6.00;6.00;;;;;20.08;59.07;101356.16;4995910;28;68695;-61
2021/08/13 04:11:28;;;;;;;;;7.50;7.00;;;;;20.07;58.97;101353.69;5001265;28;45654;-61
2021/08/13 04:13:53;;;;;;;;;7.50;6.25;;;;;20.07;58.82;101353.69;5014739;28;46024;-61
2021/08/13 04:16:20;;;;;;;;;7.00;6.00;;;;;20.05;58.98;101356.50;5014737;28;45359;-61
2021/08/13 04:18:45;;;;;;;;;6.75;6.75;;;;;20.02;58.74;101360.38;5014978;28;45468;-61
2021/08/13 04:21:10;;;;;;;;;7.75;6.00;;;;;20.00;58.94;101359.72;5014261;28;50019;-60
2021/08/13 04:23:36;;;;;;;;;7.50;5.50;;;;;20.00;58.78;101364.22;5014054;28;45796;-61
2021/08/13 04:26:01;;;;;;;;;8.00;6.50;;;;;19.99;58.68;101360.72;5013414;28;63641;-60
2021/08/13 04:28:26;;;;;;;;;8.75;6.00;;;;;19.99;58.99;101366.06;5014204;28;45399;-60
2021/08/13 04:30:52;;;;;;;;;7.25;6.25;;;;;19.97;59.19;101365.41;5013554;28;66535;-60
2021/08/13 04:33:17;;;;;;;;;9.25;7.50;;;;;19.95;59.24;101364.75;5013410;28;60518;-60
2021/08/13 04:35:43;;;;;;;;;7.25;7.00;;;;;19.94;58.97;101364.91;5013623;28;59967;-60
2021/08/13 04:38:08;;;;;;;;;10.50;7.50;;;;;19.95;58.76;101379.91;5014076;28;45566;-61
2021/08/13 04:40:33;;;;;;;;;8.00;7.00;;;;;19.93;59.14;101372.09;5013233;28;64473;-60
2021/08/13 04:42:59;;;;;;;;;9.00;6.00;;;;;19.91;59.30;101379.47;5012837;28;72751;-61
2021/08/13 04:45:25;;;;;;;;;8.75;5.50;;;;;19.90;58.99;101369.78;5013846;28;45344;-60
2021/08/13 04:47:50;;;;;;;;;5.50;5.25;;;;;19.86;59.12;101371.97;5016045;28;45350;-61
2021/08/13 04:50:15;;;;;;;;;7.75;6.50;;;;;19.84;59.14;101373.97;5016797;28;67066;-61
2021/08/13 04:52:44;;;;;;;;;5.75;5.75;;;;;19.84;59.36;101375.81;5016738;28;65667;-61
2021/08/13 04:55:10;;;;;;;;;6.75;5.75;;;;;19.83;59.32;101379.47;5015261;28;45931;-60
2021/08/13 04:57:35;;;;;;;;;7.00;5.75;;;;;19.82;59.31;101375.16;5016982;28;45489;-61
2021/08/13 05:00:01;;;;;;;;;6.00;5.00;;;;;19.82;59.22;101377.81;5016270;28;66269;-60
2021/08/13 05:02:27;;;;;;;;;6.00;5.00;;;;;19.82;59.58;101377.81;5016298;28;63981;-59
2021/08/13 05:04:59;;;;;;;;;6.50;6.00;;;;;19.81;58.98;101387.66;5017133;28;46088;-60
2021/08/13 05:07:25;;;;;;;;;5.00;5.00;;;;;19.82;59.37;101391.16;5017252;28;45484;-59
2021/08/13 05:09:50;;;;;;;;;11.75;11.00;;;;;19.80;59.57;101386.00;5016982;28;45412;-61
2021/08/13 05:12:16;;;;;;;;;8.50;6.00;;;;;19.79;58.98;101391.50;5017229;28;45639;-60
2021/08/13 05:14:41;;;;;;;;;7.75;5.25;;;;;19.76;59.21;101400.69;5012404;28;67185;-59
2021/08/13 05:17:06;;;;;;;;;6.00;4.50;;;;;19.75;59.56;101395.53;5009502;28;68086;-60
2021/08/13 05:19:32;;;;;;;;;6.75;5.75;;;;;19.71;59.75;101398.53;5007276;28;65220;-60
2021/08/13 05:21:57;;;;;;;;;5.00;5.00;;;;;19.70;59.29;101393.41;5017229;28;45355;-60
2021/08/13 05:24:23;;;;;;;;;5.25;4.50;;;;;19.68;59.23;101398.06;5016903;28;45374;-60
2021/08/13 05:26:48;;;;;;;;;6.75;5.00;;;;;19.68;59.40;101408.75;5016470;28;61011;-59
2021/08/13 05:29:13;;;;;;;;;5.75;4.25;;;;;19.66;59.13;101421.41;5016529;28;56999;-60
2021/08/13 05:31:39;;;;;;;;;7.25;5.25;;;;;19.64;59.39;101416.22;5016444;28;45407;-60
2021/08/13 05:34:04;;;;;;;;;5.75;5.00;;;;;19.62;59.29;101418.25;5016248;28;45491;-61
2021/08/13 05:36:29;;;;;;;;;6.00;4.75;;;;;19.61;59.62;101423.75;5015606;28;70333;-60
2021/08/13 05:38:55;;;;;;;;;7.50;6.00;;;;;19.62;59.40;101428.91;5015796;28;70191;-61
2021/08/13 05:41:20;;;;;;;;;8.75;6.00;;;;;19.62;59.57;101431.56;5015944;28;69106;-60
2021/08/13 05:43:45;;;;;;;;;6.50;5.50;;;;;19.62;59.79;101430.75;5015611;28;67594;-60
2021/08/13 05:46:11;;;;;;;;;7.50;5.75;;;;;19.62;59.60;101438.75;5015874;28;60142;-60
2021/08/13 05:48:37;;;;;;;;;7.50;6.50;;;;;19.62;59.49;101441.41;5016716;28;45654;-61
2021/08/13 05:51:02;;;;;;;;;5.75;5.00;;;;;19.63;59.59;101435.09;5016365;28;45502;-60
2021/08/13 05:53:27;;;;;;;;;5.75;5.75;;;;;19.64;59.26;101434.91;5014820;28;45428;-60
2021/08/13 05:55:53;;;;;;;;;6.25;5.00;;;;;19.65;59.58;101431.22;5013335;28;61809;-61
2021/08/13 05:58:18;;;;;;;;;6.75;5.00;;;;;19.67;59.59;101429.22;5014909;28;65220;-60
2021/08/13 06:00:44;;;;;;;;;6.00;4.75;;;;;19.67;59.44;101437.22;5015137;28;71987;-60
2021/08/13 06:03:09;;;;;;;;;7.75;5.25;;;;;19.71;59.59;101448.38;5015753;28;58896;-60
2021/08/13 06:05:34;;;;;;;;;6.50;5.50;;;;;19.74;59.34;101450.69;5015850;28;45368;-60
2021/08/13 06:08:00;;;;;;;;;7.00;5.00;;;;;19.79;59.43;101456.34;5014866;28;45448;-60
2021/08/13 06:10:25;;;;;;;;;5.00;5.00;;;;;19.86;59.64;101456.47;5015971;28;45426;-60
2021/08/13 06:12:51;;;;;;;;;7.00;6.25;;;;;19.90;59.34;101455.13;5015722;28;55348;-60
2021/08/13 06:15:16;;;;;;;;;5.00;5.00;;;;;19.94;59.27;101452.94;5015918;28;45514;-60
2021/08/13 06:17:42;;;;;;;;;6.50;5.00;;;;;19.98;58.87;101447.09;5016252;28;45554;-61
2021/08/13 06:20:08;;;;;;;;;7.00;5.00;;;;;20.05;59.24;101451.72;5015968;28;45941;-60
2021/08/13 06:22:34;;;;;;;;;6.00;5.00;;;;;20.14;59.15;101448.81;5015789;28;46205;-61
2021/08/13 06:24:59;;;;;;;;;5.00;5.00;;;;;20.23;58.96;101454.09;5015205;28;58728;-60
2021/08/13 06:27:24;;;;;;;;;5.50;5.00;;;;;20.33;58.61;101456.53;5015057;28;61363;-60
2021/08/13 06:29:50;;;;;;;;;8.50;6.50;;;;;;;;5015456;28;53426;-61
2021/08/13 06:32:15;;;;;;;;;7.00;5.33;;;;;20.53;58.35;101473.72;5015010;28;69434;-60
2021/08/13 06:34:40;;;;;;;;;5.50;5.00;;;;;20.64;57.50;101477.81;5015025;28;66457;-61
2021/08/13 06:37:06;;;;;;;;;6.75;6.25;;;;;20.70;57.19;101477.09;5014903;28;68706;-60
2021/08/13 06:39:31;;;;;;;;;6.75;4.25;;;;;20.79;57.21;101485.06;5014882;28;67470;-60
2021/08/13 06:41:56;;;;;;;;;7.00;5.00;;;;;20.87;56.80;101488.47;5015887;28;45468;-61
2021/08/13 06:44:22;;;;;;;;;5.75;4.00;;;;;20.93;56.55;101488.75;5015026;28;67703;-60
2021/08/13 06:46:47;;;;;;;;;5.00;4.75;;;;;20.98;55.99;101489.06;5016124;28;45505;-60
2021/08/13 06:49:13;;;;;;;;;6.50;5.00;;;;;21.02;56.19;101490.34;5014740;28;74686;-60
2021/08/13 06:51:38;;;;;;;;;6.00;5.25;;;;;21.04;55.90;101499.84;5015593;28;45466;-60
2021/08/13 06:54:03;;;;;;;;;5.00;5.00;;;;;21.07;56.33;101504.00;5014765;28;59937;-60
2021/08/13 06:56:29;;;;;;;;;8.75;5.00;;;;;21.11;55.92;101494.59;5014358;28;68728;-59
2021/08/13 06:58:55;;;;;;;;;5.00;4.00;;;;;21.18;55.83;101498.22;5014343;28;70966;-59
2021/08/13 07:01:20;;;;;;;;;5.50;3.50;;;;;21.26;55.54;101501.78;5015447;28;45932;-60
2021/08/13 07:03:46;;;;;;;;;6.00;5.00;;;;;21.35;55.75;101506.03;5014630;28;68466;-60
2021/08/13 07:06:11;;;;;;;;;6.75;4.00;;;;;21.44;54.75;101496.09;5014653;28;62749;-59
2021/08/13 07:08:37;;;;;;;;;5.25;4.50;;;;;21.50;55.09;101493.50;5014608;28;58599;-60
2021/08/13 07:11:02;;;;;;;;;6.00;5.00;;;;;21.55;54.52;101489.44;5015203;28;45488;-60
2021/08/13 07:13:27;;;;;;;;;5.00;4.75;;;;;21.62;54.96;101495.75;5014117;28;45264;-60
2021/08/13 07:15:53;;;;;;;;;4.25;4.25;;;;;21.71;54.63;101501.81;5013356;28;59383;-60
2021/08/13 07:18:18;;;;;;;;;6.25;6.25;;;;;21.77;54.18;101499.19;5014213;28;67623;-59
2021/08/13 07:20:44;;;;;;;;;7.00;4.00;;;;;21.90;54.19;101511.09;5015158;28;45558;-60
2021/08/13 07:23:09;;;;;;;;;3.25;3.00;;;;;22.04;53.94;101509.38;5014766;28;52982;-60
2021/08/13 07:25:35;;;;;;;;;4.75;4.50;;;;;22.22;54.05;101512.47;5015073;28;45288;-61
2021/08/13 07:28:00;;;;;;;;;3.75;3.75;;;;;22.36;52.87;101508.09;5013654;28;52704;-61
2021/08/13 07:30:25;;;;;;;;;6.50;5.00;;;;;22.47;52.55;101517.50;5015134;28;45510;-60
2021/08/13 07:32:51;;;;;;;;;4.00;4.00;;;;;22.62;52.43;101521.94;5015239;28;46054;-61
2021/08/13 07:35:16;;;;;;;;;4.50;4.00;;;;;22.72;51.29;101524.31;5014316;28;65442;-59
2021/08/13 07:37:42;;;;;;;;;5.00;3.00;;;;;22.83;51.51;101513.91;5013637;28;74278;-60
2021/08/13 07:40:07;;;;;;;;;3.25;2.25;;;;;22.92;50.61;101522.63;5013918;28;70008;-61
2021/08/13 07:42:35;;;;;;;;;4.00;2.25;;;;;23.01;50.89;101525.16;5014947;28;45373;-60
2021/08/13 07:45:00;;;;;;;;;4.50;4.00;;;;;23.11;50.34;101533.69;5014527;28;45570;-61
2021/08/13 07:47:26;;;;;;;;;4.00;3.00;;;;;23.17;50.56;101538.28;5014566;28;45516;-59
2021/08/13 07:49:51;;;;;;;;;3.75;3.25;;;;;23.24;50.08;101539.19;5014593;28;45242;-60
2021/08/13 07:52:16;;;;;;;;;4.50;4.00;;;;;23.34;49.44;101540.66;5014025;28;66496;-60
2021/08/13 07:54:42;;;;;;;;;3.00;3.00;;;;;23.45;49.61;101548.16;5014006;28;64507;-61
2021/08/13 07:57:07;;;;;;;;;4.00;3.00;;;;;23.60;49.35;101555.25;5014207;28;51159;-62
2021/08/13 07:59:36;;;;;;;;;4.25;2.75;;;;;23.74;48.76;101559.69;5013605;28;67908;-61
2021/08/13 08:02:02;;;;;;;;;3.00;3.00;;;;;23.89;48.83;101561.38;4997697;28;45601;-62
2021/08/13 08:04:27;;;;;;;;;5.00;3.00;;;;;24.03;48.33;101554.25;5013946;28;46429;-62
2021/08/13 08:06:56;;;;;;;;;6.50;4.00;;;;;24.19;47.84;101563.81;5012712;28;72452;-61
2021/08/13 08:09:23;;;;;;;;;3.75;3.00;;;;;24.33;48.02;101570.03;5014430;28;45723;-60
2021/08/13 08:11:48;;;;;;;;;3.00;3.00;;;;;24.41;47.93;101570.66;5014729;28;45420;-60
2021/08/13 08:14:13;;;;;;;;;2.75;2.00;;;;;24.52;47.50;101573.78;5013526;28;67415;-61
2021/08/13 08:16:39;;;;;;;;;3.50;3.50;;;;;24.63;47.71;101581.25;5013376;28;65912;-61
2021/08/13 08:19:04;;;;;;;;;3.00;3.00;;;;;24.79;47.73;101579.25;5014191;28;62649;-60
2021/08/13 08:21:29;;;;;;;;;4.00;3.00;;;;;24.95;46.93;101583.38;5015354;28;45719;-62
2021/08/13 08:23:55;;;;;;;;;2.00;2.00;;;;;25.04;46.81;101585.63;5017288;28;64926;-61
2021/08/13 08:26:21;;;;;;;;;6.00;4.50;;;;;25.19;46.23;101593.47;5018065;28;45363;-61
2021/08/13 08:28:46;;;;;;;;;3.75;2.00;;;;;25.29;45.50;101594.94;5016871;28;72468;-60
2021/08/13 08:31:12;;;;;;;;;4.75;4.00;;;;;25.31;45.65;101592.84;5018183;28;46511;-61
2021/08/13 08:33:37;;;;;;;;;2.25;2.00;;;;;25.33;45.56;101591.63;5017961;28;45490;-60
2021/08/13 08:36:03;;;;;;;;;3.00;2.25;;;;;25.37;45.22;101586.66;5016642;28;73639;-61
2021/08/13 08:38:28;;;;;;;;;3.00;2.00;;;;;25.44;45.24;101589.34;5017438;28;50199;-61
2021/08/13 08:40:53;;;;;;;;;2.75;2.75;;;;;25.51;45.13;101589.34;5016891;28;64127;-60
2021/08/13 08:43:19;;;;;;;;;2.50;2.50;;;;;25.55;44.79;101593.28;4999413;28;60757;-60
2021/08/13 08:45:44;;;;;;;;;4.00;2.00;;;;;25.55;44.74;101595.97;5016473;28;70988;-61
2021/08/13 08:48:10;;;;;;;;;2.75;2.00;;;;;25.56;44.29;101598.44;5016749;28;66507;-61
2021/08/13 08:50:37;;;;;;;;;3.00;2.25;;;;;25.62;44.48;101597.59;5016799;28;45364;-61
2021/08/13 08:53:07;;;;;;;;;4.75;3.75;;;;;25.72;44.67;101599.03;5017758;28;45196;-61
2021/08/13 08:55:33;;;;;;;;;3.00;3.00;;;;;25.86;44.18;101595.25;5017133;28;50276;-61
2021/08/13 08:57:58;;;;;;;;;2.00;2.00;;;;;25.96;43.75;101592.09;5017399;28;45480;-59
2021/08/13 09:00:23;;;;;;;;;1.25;1.25;;;;;26.07;43.56;101601.38;5016085;28;45484;-61
2021/08/13 09:02:49;;;;;;;;;3.00;3.00;;;;;26.16;43.56;101597.44;5016828;28;62046;-61
2021/08/13 09:05:15;;;;;;;;;3.00;1.75;;;;;26.33;43.20;101599.63;5016995;28;46311;-61
2021/08/13 09:07:40;;;;;;;;;3.00;2.00;;;;;26.47;43.15;101601.22;5017369;28;45289;-60
2021/08/13 09:10:12;;;;;;;;;3.00;2.75;;;;;26.66;43.31;101591.34;5016577;28;67063;-61
2021/08/13 09:12:37;;;;;;;;;3.50;2.25;;;;;26.85;42.38;101585.22;5017685;28;45466;-61
2021/08/13 09:15:03;;;;;;;;;2.00;2.00;;;;;27.01;42.22;101587.38;5016743;28;50740;-61
2021/08/13 09:17:29;;;;;;;;;2.75;2.25;;;;;27.20;41.67;101582.00;5016208;28;45407;-61
2021/08/13 09:19:55;;;;;;;;;2.00;2.00;;;;;27.40;41.66;101571.00;5016525;28;45515;-61
2021/08/13 09:22:20;;;;;;;;;2.00;2.00;;;;;27.61;40.96;101568.94;5016509;28;63375;-61
2021/08/13 09:24:48;;;;;;;;;2.25;2.00;;;;;27.81;41.03;101569.53;5014273;28;64972;-61
2021/08/13 09:27:18;;;;;;;;;2.50;2.50;;;;;27.93;40.37;101575.00;5017121;28;46062;-61
2021/08/13 09:30:06;;;;;;;;;2.00;2.00;;;;;27.99;39.95;101584.06;5017152;28;45530;-61
2021/08/13 09:32:32;;;;;;;;;3.00;2.75;;;;;28.04;39.79;101586.09;5017101;28;45590;-61
2021/08/13 09:34:57;;;;;;;;;4.00;2.50;;;;;28.08;39.08;101595.38;5014736;28;69097;-61
2021/08/13 09:37:22;;;;;;;;;4.50;3.00;;;;;28.11;39.45;101605.72;4999227;28;45378;-61
2021/08/13 09:39:55;;;;;;;;;3.00;3.00;;;;;28.17;39.30;101596.72;5016373;28;62905;-61
2021/08/13 09:42:21;;;;;;;;;3.75;3.75;;;;;28.24;39.66;101594.75;5009491;28;45457;-61
2021/08/13 09:44:59;;;;;;;;;3.00;2.00;;;;;28.33;39.74;101594.44;5016794;28;45968;-61
2021/08/13 09:47:45;;;;;;;;;3.00;2.75;;;;;28.44;38.96;101596.38;5015725;28;45982;-61
2021/08/13 09:50:13;;;;;;;;;3.25;1.50;;;;;28.57;38.78;101589.94;5012812;28;45385;-61
2021/08/13 09:52:39;;;;;;;;;2.75;2.75;;;;;28.73;38.31;101588.44;5016783;28;45555;-61
2021/08/13 09:55:09;;;;;;;;;2.25;2.25;;;;;28.84;38.27;101579.53;5016349;28;45296;-61
2021/08/13 09:57:45;;;;;;;;;2.25;2.25;;;;;28.92;38.80;101578.38;5016499;28;45372;-62
2021/08/13 10:00:11;;;;;;;;;3.75;3.75;;;;;28.98;38.40;101573.91;5013207;28;45493;-61
2021/08/13 10:02:38;;;;;;;;;3.50;2.50;;;;;29.00;38.23;101569.09;5016407;28;45384;-61
2021/08/13 10:05:23;;;;;;;;;2.50;1.50;;;;;29.02;39.00;101575.91;5015891;28;46964;-62
2021/08/13 10:07:52;;;;;;;;;4.50;3.75;;;;;29.05;38.42;101580.03;5015989;28;45431;-61
2021/08/13 10:10:26;;;;;;;;;3.00;3.00;;;;;29.15;37.61;101577.53;5016510;28;45459;-61
2021/08/13 10:12:52;;;;;;;;;2.50;2.50;;;;;29.28;37.92;101578.38;5014669;28;45500;-62
2021/08/13 10:15:28;;;;;;;;;5.75;2.75;;;;;29.42;37.73;101581.66;5016034;28;45587;-62
2021/08/13 10:17:55;;;;;;;;;3.50;2.50;;;;;29.55;37.13;101584.13;5014951;28;45556;-61
2021/08/13 10:20:21;;;;;;;;;4.25;3.00;;;;;29.71;37.05;101581.75;5014909;28;45530;-61
2021/08/13 10:22:46;;;;;;;;;1.00;1.00;;;;;29.86;36.58;101575.81;5014907;28;46180;-61
2021/08/13 10:25:12;;;;;;;;;2.00;2.00;;;;;29.99;37.01;101580.13;5012874;28;75657;-61
2021/08/13 10:27:37;;;;;;;;;2.00;2.00;;;;;30.05;36.99;101577.31;4999794;28;66520;-61
2021/08/13 10:30:03;;;;;;;;;1.25;1.25;;;;;30.15;36.11;101582.09;4997676;28;67389;-61
2021/08/13 10:32:28;;;;;;;;;2.50;2.00;;;;;30.22;35.65;101581.94;5016077;28;45333;-62
2021/08/13 10:34:54;;;;;;;;;3.25;3.25;;;;;30.29;36.63;101577.19;5015173;28;64851;-62
2021/08/13 10:37:20;;;;;;;;;0.00;0.00;;;;;30.41;36.66;101577.13;5015684;28;47243;-61
2021/08/13 10:39:45;;;;;;;;;4.50;4.00;;;;;30.52;35.80;101577.28;4997032;28;67425;-61
2021/08/13 10:42:18;;;;;;;;;4.00;3.00;;;;;30.58;35.63;101573.63;4997405;28;66392;-61
2021/08/13 10:44:46;;;;;;;;;4.00;3.00;;;;;30.71;35.13;101573.31;4997365;28;45472;-61
2021/08/13 10:47:13;;;;;;;;;5.00;3.00;;;;;30.80;35.23;101571.00;5015222;28;52890;-62
2021/08/13 10:49:39;;;;;;;;;5.00;4.75;;;;;30.87;35.25;101574.38;5011036;28;45392;-61
2021/08/13 10:52:06;;;;;;;;;4.25;4.25;;;;;30.86;34.97;101577.34;5012707;28;45337;-61
2021/08/13 10:54:41;;;;;;;;;3.00;3.00;;;;;30.87;35.08;101582.50;5015659;28;46212;-61
2021/08/13 10:57:13;;;;;;;;;7.50;7.50;;;;;30.94;34.85;101577.72;5008897;28;45788;-62
2021/08/13 10:59:42;;;;;;;;;4.50;3.50;;;;;31.06;35.18;101574.09;5012802;28;45334;-61
2021/08/13 11:02:10;;;;;;;;;6.00;6.00;;;;;31.14;34.65;101573.69;5012839;28;45515;-61
2021/08/13 11:04:39;;;;;;;;;3.00;3.00;;;;;31.19;34.46;101573.78;5015390;28;46381;-61
2021/08/13 11:07:05;;;;;;;;;6.00;6.00;;;;;31.28;34.62;101560.59;5015477;28;45458;-62
2021/08/13 11:09:32;;;;;;;;;5.50;5.50;;;;;31.35;34.37;101557.69;5014506;28;61236;-60
2021/08/13 11:11:57;;;;;;;;;3.00;3.00;;;;;31.39;34.49;101564.25;5015650;28;45569;-61
2021/08/13 11:14:26;;;;;;;;;8.33;7.00;;;;;31.47;34.44;101566.53;5014841;28;45293;-60
2021/08/13 11:16:51;;;;;;;;;3.50;3.50;;;;;31.60;34.35;101557.19;5014934;28;46019;-61
2021/08/13 11:19:19;;;;;;;;;5.50;5.00;;;;;31.71;34.42;101562.75;5014988;28;52106;-61
2021/08/13 11:21:51;;;;;;;;;5.00;4.00;;;;;31.78;34.50;101558.81;5015268;28;45588;-62